Terminal Aerodrome Forecast
Issued by NWS

Home | Current Version | Previous Version | Graphics & Text | Print | Product List | Glossary On
Versions: 1 2 3 4 5 6 7 8 9 10 11 12 13 14 15
000
FTUS42 KMHX 040541
TAFISO
TAF
KISO 040541Z 0406/0506 22010G15KT P6SM SCT009
     FM041300 24014G24KT P6SM SCT050
     FM041700 25020G28KT P6SM VCTS SCT050CB
     FM050000 22006KT P6SM VCSH SCT100
      AMD LTD TO CLD VIS AND WIND=

USA.gov is the U.S. government's official web portal to all federal, state and local government web resources and services.